Time;durP1;ratioP1;P1;durP2;ratioP2;P2;SDS_P1;SDS_P2;PMS_P1;PMS_P2;Temp;Humidity;BMP_temperature;BMP_pressure;BME280_temperature;BME280_humidity;BME280_pressure;Samples;Min_cycle;Max_cycle;Signal;HPM_P1;HPM_P2
2023/09/28 00:02:55;;;;;;;12.77;10.20;;;;;;;;;;5113317;28;20174;-73
2023/09/28 00:06:01;;;;;;;15.03;10.87;;;;;;;;;;5113241;28;20185;-73
2023/09/28 00:09:05;;;;;;;15.27;10.60;;;;;;;;;;5113361;28;20585;-73
2023/09/28 00:12:10;;;;;;;11.23;9.90;;;;;;;;;;5113217;28;20206;-73
2023/09/28 00:15:15;;;;;;;13.33;10.17;;;;;;;;;;5100709;28;20183;-73
2023/09/28 00:18:21;;;;;;;11.07;9.60;;;;;;;;;;5100601;28;20216;-72
2023/09/28 00:21:25;;;;;;;12.80;11.03;;;;;;;;;;5112938;28;20174;-73
2023/09/28 00:24:29;;;;;;;12.77;11.03;;;;;;;;;;5100251;28;20181;-72
2023/09/28 00:27:33;;;;;;;13.40;10.47;;;;;;;;;;5112935;28;20193;-72
2023/09/28 00:30:37;;;;;;;17.80;10.97;;;;;;;;;;5101946;28;20177;-72
2023/09/28 00:33:42;;;;;;;15.20;10.90;;;;;;;;;;5104305;28;20217;-74
2023/09/28 00:36:46;;;;;;;12.70;10.60;;;;;;;;;;5104349;28;20664;-73
2023/09/28 00:39:52;;;;;;;13.87;12.33;;;;;;;;;;5104486;28;20710;-74
2023/09/28 00:42:56;;;;;;;15.57;12.03;;;;;;;;;;5104448;28;20644;-73
2023/09/28 00:46:03;;;;;;;13.67;11.13;;;;;;;;;;5104489;28;20182;-73
2023/09/28 00:49:16;;;;;;;15.70;11.40;;;;;;;;;;5104325;28;20233;-73
2023/09/28 00:52:21;;;;;;;12.57;11.10;;;;;;;;;;5116720;28;20577;-73
2023/09/28 00:55:29;;;;;;;14.00;10.93;;;;;;;;;;5116757;28;20178;-73
2023/09/28 00:58:37;;;;;;;12.63;10.40;;;;;;;;;;5092387;28;20221;-73
2023/09/28 01:01:42;;;;;;;13.20;11.00;;;;;;;;;;5104080;28;20538;-73
2023/09/28 01:04:46;;;;;;;13.63;10.87;;;;;;;;;;5103976;28;20189;-73
2023/09/28 01:07:50;;;;;;;14.07;10.97;;;;;;;;;;5103934;28;20187;-73
2023/09/28 01:10:54;;;;;;;13.33;10.70;;;;;;;;;;5103869;28;20672;-73
2023/09/28 01:14:01;;;;;;;13.93;10.93;;;;;;;;;;5116305;28;20568;-73
2023/09/28 01:17:07;;;;;;;14.17;9.93;;;;;;;;;;5103396;28;20178;-73
2023/09/28 01:20:25;;;;;;;11.57;10.33;;;;;;;;;;5116231;28;20182;-73
2023/09/28 01:23:29;;;;;;;11.67;9.60;;;;;;;;;;5103447;28;20178;-73
2023/09/28 01:26:34;;;;;;;14.00;10.63;;;;;;;;;;5103577;28;20179;-73
2023/09/28 01:29:38;;;;;;;13.03;11.40;;;;;;;;;;5103323;28;20585;-73
2023/09/28 01:32:43;;;;;;;14.53;11.73;;;;;;;;;;5091732;28;20206;-73
2023/09/28 01:35:47;;;;;;;14.43;11.90;;;;;;;;;;5115941;28;20185;-73
2023/09/28 01:39:07;;;;;;;18.50;12.17;;;;;;;;;;5091530;28;20217;-73
2023/09/28 01:42:13;;;;;;;14.77;11.87;;;;;;;;;;5115488;28;20183;-73
2023/09/28 01:45:17;;;;;;;15.00;12.43;;;;;;;;;;5102891;28;20198;-73
2023/09/28 01:48:23;;;;;;;14.73;11.73;;;;;;;;;;5102944;28;20240;-73
2023/09/28 01:51:27;;;;;;;15.93;12.23;;;;;;;;;;5103125;28;20174;-73
2023/09/28 01:54:31;;;;;;;17.60;14.07;;;;;;;;;;5103056;28;20181;-73
2023/09/28 01:57:35;;;;;;;17.97;13.70;;;;;;;;;;5115511;28;20181;-73
2023/09/28 02:00:44;;;;;;;18.63;12.67;;;;;;;;;;5102896;28;20548;-73
2023/09/28 02:03:48;;;;;;;16.10;12.20;;;;;;;;;;5102923;28;20191;-73
2023/09/28 02:06:53;;;;;;;15.43;12.03;;;;;;;;;;5091145;28;20549;-73
2023/09/28 02:09:57;;;;;;;16.33;13.40;;;;;;;;;;5115331;28;20588;-73
2023/09/28 02:13:04;;;;;;;21.47;12.93;;;;;;;;;;5102639;28;20209;-73
2023/09/28 02:16:11;;;;;;;15.60;12.53;;;;;;;;;;5115142;28;20178;-73
2023/09/28 02:19:15;;;;;;;16.33;11.73;;;;;;;;;;5102568;28;20224;-73
2023/09/28 02:22:19;;;;;;;18.67;12.43;;;;;;;;;;5115020;28;20185;-73
2023/09/28 02:25:26;;;;;;;14.30;11.90;;;;;;;;;;5114969;28;20182;-73
2023/09/28 02:28:30;;;;;;;13.40;11.27;;;;;;;;;;5102307;28;20223;-73
2023/09/28 02:31:34;;;;;;;16.10;11.60;;;;;;;;;;5102294;28;20189;-72
2023/09/28 02:34:38;;;;;;;17.70;11.23;;;;;;;;;;5102262;28;20174;-72
2023/09/28 02:37:44;;;;;;;14.60;12.27;;;;;;;;;;5102256;28;20181;-73
2023/09/28 02:40:49;;;;;;;20.83;12.20;;;;;;;;;;5102164;28;20185;-73
2023/09/28 02:43:53;;;;;;;16.30;12.57;;;;;;;;;;5114652;28;20659;-73
2023/09/28 02:46:57;;;;;;;15.97;12.87;;;;;;;;;;5114494;28;20201;-73
2023/09/28 02:50:01;;;;;;;14.17;11.83;;;;;;;;;;5114462;28;20220;-73
2023/09/28 02:53:07;;;;;;;16.30;12.17;;;;;;;;;;5113768;28;20395;-73
2023/09/28 02:56:12;;;;;;;15.70;12.63;;;;;;;;;;5101911;28;20181;-73
2023/09/28 02:59:17;;;;;;;15.40;12.10;;;;;;;;;;5114283;28;20739;-73
2023/09/28 03:02:22;;;;;;;20.00;13.70;;;;;;;;;;5114366;28;20187;-73
2023/09/28 03:05:28;;;;;;;16.30;12.87;;;;;;;;;;5101758;28;20692;-73
2023/09/28 03:08:33;;;;;;;16.60;12.77;;;;;;;;;;5114160;28;20218;-73
2023/09/28 03:11:38;;;;;;;14.40;10.63;;;;;;;;;;5114100;28;20193;-73
2023/09/28 03:14:43;;;;;;;12.67;10.43;;;;;;;;;;5113946;28;20213;-73
2023/09/28 03:17:47;;;;;;;13.00;11.23;;;;;;;;;;5113907;28;20540;-73
2023/09/28 03:20:53;;;;;;;15.03;12.00;;;;;;;;;;5101429;28;20187;-73
2023/09/28 03:23:58;;;;;;;12.17;10.50;;;;;;;;;;5101592;28;20174;-73
2023/09/28 03:27:03;;;;;;;14.93;11.37;;;;;;;;;;5101507;28;20178;-73
2023/09/28 03:30:10;;;;;;;14.60;11.83;;;;;;;;;;5101271;28;20545;-73
2023/09/28 03:33:14;;;;;;;13.40;11.07;;;;;;;;;;5101289;28;20698;-73
2023/09/28 03:36:18;;;;;;;13.13;11.20;;;;;;;;;;5113693;28;20544;-73
2023/09/28 03:39:22;;;;;;;18.93;13.23;;;;;;;;;;5113780;28;20226;-73
2023/09/28 03:42:27;;;;;;;16.57;13.03;;;;;;;;;;5101197;28;20551;-72
2023/09/28 03:45:31;;;;;;;17.17;14.37;;;;;;;;;;5113587;28;20170;-73
2023/09/28 03:48:35;;;;;;;18.60;13.83;;;;;;;;;;5113474;28;20221;-73
2023/09/28 03:51:40;;;;;;;17.43;14.60;;;;;;;;;;5113546;28;20189;-73
2023/09/28 03:54:44;;;;;;;19.57;15.30;;;;;;;;;;5100894;28;20210;-73
2023/09/28 03:57:48;;;;;;;22.00;15.70;;;;;;;;;;5113540;28;20653;-73
2023/09/28 04:00:53;;;;;;;26.43;19.20;;;;;;;;;;5113397;28;20170;-73
2023/09/28 04:03:57;;;;;;;25.63;19.27;;;;;;;;;;5114011;28;20185;-73
2023/09/28 04:07:01;;;;;;;23.27;18.47;;;;;;;;;;5117598;28;20255;-73
2023/09/28 04:10:06;;;;;;;35.03;23.70;;;;;;;;;;5117559;28;20191;-73
2023/09/28 04:13:11;;;;;;;30.87;22.03;;;;;;;;;;5104947;28;20218;-73
2023/09/28 04:16:15;;;;;;;34.80;21.50;;;;;;;;;;5117553;28;20535;-73
2023/09/28 04:19:19;;;;;;;21.23;17.00;;;;;;;;;;5117460;28;20216;-73
2023/09/28 04:22:23;;;;;;;19.80;15.77;;;;;;;;;;5117385;28;20178;-73
2023/09/28 04:25:29;;;;;;;20.30;16.33;;;;;;;;;;5117295;28;20198;-73
2023/09/28 04:28:33;;;;;;;22.57;16.53;;;;;;;;;;5104547;28;20214;-73
2023/09/28 04:31:37;;;;;;;26.07;18.30;;;;;;;;;;5092983;28;20182;-73
2023/09/28 04:34:42;;;;;;;29.33;20.23;;;;;;;;;;5117073;28;20213;-73
2023/09/28 04:37:50;;;;;;;32.67;21.77;;;;;;;;;;5116897;28;20181;-73
2023/09/28 04:40:54;;;;;;;26.83;18.17;;;;;;;;;;5116935;28;20189;-73
2023/09/28 04:43:58;;;;;;;27.13;18.73;;;;;;;;;;5104282;28;20195;-73
2023/09/28 04:47:02;;;;;;;26.00;19.10;;;;;;;;;;5116776;28;20226;-73
2023/09/28 04:50:07;;;;;;;23.17;17.30;;;;;;;;;;5116751;28;20251;-73
2023/09/28 04:53:12;;;;;;;21.93;17.80;;;;;;;;;;5104115;28;20668;-73
2023/09/28 04:56:16;;;;;;;24.33;17.63;;;;;;;;;;5116685;28;20174;-73
2023/09/28 04:59:20;;;;;;;24.10;17.47;;;;;;;;;;5116398;28;20220;-73
2023/09/28 05:02:26;;;;;;;19.83;16.73;;;;;;;;;;5116546;28;20187;-73
2023/09/28 05:05:32;;;;;;;20.63;15.80;;;;;;;;;;5116487;28;20178;-73
2023/09/28 05:08:37;;;;;;;20.70;16.53;;;;;;;;;;5103681;28;20209;-73
2023/09/28 05:11:42;;;;;;;26.33;16.37;;;;;;;;;;5103730;28;20178;-73
2023/09/28 05:14:46;;;;;;;22.30;15.20;;;;;;;;;;5116146;28;20202;-73
2023/09/28 05:17:50;;;;;;;20.10;15.73;;;;;;;;;;5103304;28;20177;-73
2023/09/28 05:20:55;;;;;;;20.27;14.50;;;;;;;;;;5103425;28;20191;-73
2023/09/28 05:23:59;;;;;;;18.17;14.40;;;;;;;;;;5103543;28;20180;-73
2023/09/28 05:27:03;;;;;;;16.87;13.47;;;;;;;;;;5116099;28;20171;-72
2023/09/28 05:30:08;;;;;;;19.73;14.27;;;;;;;;;;5116100;28;20189;-73
2023/09/28 05:33:12;;;;;;;18.60;13.50;;;;;;;;;;5115924;28;20185;-73
2023/09/28 05:36:16;;;;;;;20.33;14.00;;;;;;;;;;5115965;28;20186;-73
2023/09/28 05:39:21;;;;;;;21.30;13.67;;;;;;;;;;5115788;28;20576;-73
2023/09/28 05:42:26;;;;;;;18.20;13.70;;;;;;;;;;5115772;28;20174;-73
2023/09/28 05:45:32;;;;;;;18.80;14.30;;;;;;;;;;5115636;28;20174;-73
2023/09/28 05:48:36;;;;;;;17.50;14.43;;;;;;;;;;5103087;28;20221;-73
2023/09/28 05:51:40;;;;;;;18.80;14.43;;;;;;;;;;5102880;28;20738;-73
2023/09/28 05:54:45;;;;;;;17.80;14.13;;;;;;;;;;5102668;28;20210;-73
2023/09/28 05:57:49;;;;;;;14.50;12.13;;;;;;;;;;5115350;28;20182;-73
2023/09/28 06:00:53;;;;;;;17.50;13.60;;;;;;;;;;5102814;28;20177;-73
2023/09/28 06:03:57;;;;;;;24.63;14.80;;;;;;;;;;5115347;28;20177;-73
2023/09/28 06:07:02;;;;;;;18.80;12.83;;;;;;;;;;5115256;28;20182;-73
2023/09/28 06:10:08;;;;;;;22.07;12.80;;;;;;;;;;5115216;28;20195;-73
2023/09/28 06:13:12;;;;;;;16.37;13.50;;;;;;;;;;5102629;28;20189;-73
2023/09/28 06:16:16;;;;;;;19.03;13.73;;;;;;;;;;5102663;28;20185;-73
2023/09/28 06:19:20;;;;;;;14.73;12.07;;;;;;;;;;5115141;28;20575;-73
2023/09/28 06:22:25;;;;;;;18.77;13.03;;;;;;;;;;5114996;28;20532;-73
2023/09/28 06:25:29;;;;;;;19.60;12.83;;;;;;;;;;5072890;22;20241;-75
2023/09/28 06:28:33;;;;;;;19.80;12.97;;;;;;;;;;5057527;28;20209;-75
2023/09/28 06:31:38;;;;;;;17.87;12.83;;;;;;;;;;5011809;28;20186;-75
2023/09/28 06:34:44;;;;;;;20.00;13.87;;;;;;;;;;5011535;28;20693;-74
2023/09/28 06:37:49;;;;;;;15.67;11.33;;;;;;;;;;5058190;28;20193;-75
2023/09/28 06:40:54;;;;;;;18.40;12.63;;;;;;;;;;5058286;28;20186;-75
2023/09/28 06:43:58;;;;;;;13.80;11.27;;;;;;;;;;5058212;28;20186;-74
2023/09/28 06:47:02;;;;;;;13.83;11.03;;;;;;;;;;5058082;28;20174;-75
2023/09/28 06:50:07;;;;;;;14.50;11.17;;;;;;;;;;5046746;28;20178;-75
2023/09/28 06:53:11;;;;;;;11.37;9.73;;;;;;;;;;5011314;28;20197;-74
2023/09/28 06:56:16;;;;;;;9.53;8.10;;;;;;;;;;5011221;28;20537;-75
2023/09/28 06:59:20;;;;;;;11.10;8.10;;;;;;;;;;5011089;28;20217;-75
2023/09/28 07:02:24;;;;;;;9.63;7.63;;;;;;;;;;5011109;28;20178;-75
2023/09/28 07:05:29;;;;;;;11.57;6.90;;;;;;;;;;5011107;28;20182;-75
2023/09/28 07:08:33;;;;;;;8.77;6.43;;;;;;;;;;5010964;28;20691;-74
2023/09/28 07:11:37;;;;;;;8.20;6.83;;;;;;;;;;5010982;28;20178;-75
2023/09/28 07:14:41;;;;;;;8.40;6.73;;;;;;;;;;5010952;28;20209;-75
2023/09/28 07:17:45;;;;;;;8.77;6.70;;;;;;;;;;5057532;28;20181;-75
2023/09/28 07:20:51;;;;;;;13.67;7.17;;;;;;;;;;5010796;28;20182;-75
2023/09/28 07:23:55;;;;;;;14.83;11.80;;;;;;;;;;5010253;28;20529;-75
2023/09/28 07:27:00;;;;;;;10.70;8.47;;;;;;;;;;5010833;28;20189;-75
2023/09/28 07:30:06;;;;;;;11.77;8.77;;;;;;;;;;5010582;28;20217;-75
2023/09/28 07:33:13;;;;;;;8.40;7.53;;;;;;;;;;5056684;28;20173;-76
2023/09/28 07:36:17;;;;;;;9.23;7.53;;;;;;;;;;5057350;28;20640;-75
2023/09/28 07:39:21;;;;;;;8.07;7.03;;;;;;;;;;5010079;28;20221;-75
2023/09/28 07:42:25;;;;;;;12.33;7.80;;;;;;;;;;5010556;28;20185;-75
2023/09/28 07:45:30;;;;;;;8.90;7.30;;;;;;;;;;5057197;28;20173;-75
2023/09/28 07:48:34;;;;;;;8.90;6.73;;;;;;;;;;5010430;28;20209;-76
2023/09/28 07:51:40;;;;;;;12.27;7.47;;;;;;;;;;5010784;28;20232;-75
2023/09/28 07:54:44;;;;;;;9.10;7.50;;;;;;;;;;5010288;28;20209;-75
2023/09/28 07:57:49;;;;;;;19.53;14.40;;;;;;;;;;5010316;28;20186;-75
2023/09/28 08:00:53;;;;;;;16.97;14.37;;;;;;;;;;5010299;28;20543;-75
2023/09/28 08:03:57;;;;;;;14.20;9.60;;;;;;;;;;5057300;28;20186;-75
2023/09/28 08:07:02;;;;;;;17.67;9.00;;;;;;;;;;5057050;28;20181;-75
2023/09/28 08:10:09;;;;;;;13.33;8.23;;;;;;;;;;5010322;28;20178;-75
2023/09/28 08:13:15;;;;;;;11.40;9.03;;;;;;;;;;5010153;28;20517;-75
2023/09/28 08:16:19;;;;;;;9.57;8.23;;;;;;;;;;5010101;28;20213;-75
2023/09/28 08:19:24;;;;;;;10.67;8.50;;;;;;;;;;5010125;28;20221;-75
2023/09/28 08:22:28;;;;;;;10.57;8.53;;;;;;;;;;5056790;28;20182;-75
2023/09/28 08:25:32;;;;;;;11.13;8.50;;;;;;;;;;5009884;28;20209;-75
2023/09/28 08:28:37;;;;;;;10.27;8.27;;;;;;;;;;5057072;28;20213;-75
2023/09/28 08:31:42;;;;;;;17.40;8.37;;;;;;;;;;5009914;28;20632;-75
2023/09/28 08:34:49;;;;;;;10.10;7.57;;;;;;;;;;5009899;28;20572;-75
2023/09/28 08:37:53;;;;;;;10.13;7.13;;;;;;;;;;5009903;28;20174;-75
2023/09/28 08:41:01;;;;;;;9.03;7.20;;;;;;;;;;5045350;28;20183;-75
2023/09/28 08:44:06;;;;;;;7.10;6.23;;;;;;;;;;5056556;28;20179;-76
2023/09/28 08:47:16;;;;;;;9.67;7.63;;;;;;;;;;5056670;28;20532;-75
2023/09/28 08:50:23;;;;;;;8.40;6.87;;;;;;;;;;5009773;28;20178;-75
2023/09/28 08:53:28;;;;;;;9.77;6.13;;;;;;;;;;5013136;28;20179;-75
2023/09/28 08:56:38;;;;;;;8.57;6.33;;;;;;;;;;5013002;28;20211;-75
2023/09/28 08:59:43;;;;;;;7.70;6.63;;;;;;;;;;5059964;28;20223;-75
2023/09/28 09:02:49;;;;;;;8.10;6.03;;;;;;;;;;5059970;28;20181;-75
2023/09/28 09:05:56;;;;;;;25.83;19.65;;;;;;;;;;5012936;28;20630;-75
2023/09/28 09:09:03;;;;;;;11.27;6.45;;;;;;;;;;5012834;28;20231;-75
2023/09/28 09:12:10;;;;;;;10.88;5.60;;;;;;;;;;5012845;28;20179;-75
2023/09/28 09:15:14;;;;;;;6.97;5.32;;;;;;;;;;5012738;28;20675;-76
2023/09/28 09:18:19;;;;;;;9.93;5.40;;;;;;;;;;5059608;28;20697;-76
2023/09/28 09:21:24;;;;;;;5.57;4.72;;;;;;;;;;5059955;28;20179;-76
2023/09/28 09:24:28;;;;;;;6.18;4.85;;;;;;;;;;5012853;28;20193;-75
2023/09/28 09:27:32;;;;;;;8.30;5.43;;;;;;;;;;5012607;28;20179;-76
2023/09/28 09:30:36;;;;;;;5.88;4.88;;;;;;;;;;5012592;28;20189;-76
2023/09/28 09:33:43;;;;;;;5.88;4.28;;;;;;;;;;5012545;28;20184;-75
2023/09/28 09:36:58;;;;;;;6.50;4.43;;;;;;;;;;5012447;28;20189;-76
2023/09/28 09:40:10;;;;;;;5.63;4.00;;;;;;;;;;5012344;28;20592;-76
2023/09/28 09:43:14;;;;;;;7.72;3.80;;;;;;;;;;5012437;28;20636;-76
2023/09/28 09:46:18;;;;;;;7.20;3.95;;;;;;;;;;5012219;28;20181;-76
2023/09/28 09:49:26;;;;;;;7.53;3.42;;;;;;;;;;5047777;28;20220;-75
2023/09/28 09:52:31;;;;;;;5.65;3.55;;;;;;;;;;5012174;28;20185;-76
2023/09/28 09:55:39;;;;;;;5.10;3.40;;;;;;;;;;5012106;28;20210;-76
2023/09/28 09:58:49;;;;;;;5.65;4.13;;;;;;;;;;5058957;28;20209;-75
2023/09/28 10:01:53;;;;;;;4.97;4.07;;;;;;;;;;5011798;28;20182;-76
2023/09/28 10:04:59;;;;;;;6.57;4.50;;;;;;;;;;5058930;28;20174;-76
2023/09/28 10:08:07;;;;;;;5.20;3.80;;;;;;;;;;5059067;28;20213;-76
2023/09/28 10:11:13;;;;;;;5.47;3.88;;;;;;;;;;5058831;28;20632;-76
2023/09/28 10:14:21;;;;;;;4.78;3.40;;;;;;;;;;5011974;28;20178;-76
2023/09/28 10:17:26;;;;;;;5.43;4.18;;;;;;;;;;5011907;28;20522;-76
2023/09/28 10:20:32;;;;;;;8.50;3.90;;;;;;;;;;5011805;28;20636;-76
2023/09/28 10:23:36;;;;;;;5.18;3.80;;;;;;;;;;5058847;28;20186;-76
2023/09/28 10:26:50;;;;;;;3.97;3.50;;;;;;;;;;5011617;28;20683;-76
2023/09/28 10:30:15;;;;;;;5.97;3.58;;;;;;;;;;5011576;28;20218;-76
2023/09/28 10:33:19;;;;;;;5.88;3.70;;;;;;;;;;5011626;28;20186;-76
2023/09/28 10:36:26;;;;;;;3.92;3.50;;;;;;;;;;5058270;28;20206;-76
2023/09/28 10:39:31;;;;;;;5.20;3.75;;;;;;;;;;5011424;28;20218;-76
2023/09/28 10:42:37;;;;;;;5.63;4.25;;;;;;;;;;5011530;28;20182;-76
2023/09/28 10:45:41;;;;;;;6.07;4.13;;;;;;;;;;5011418;28;20174;-76
2023/09/28 10:48:45;;;;;;;6.07;3.67;;;;;;;;;;5011286;28;20715;-76
2023/09/28 10:51:54;;;;;;;4.80;3.80;;;;;;;;;;5011331;28;20186;-76
2023/09/28 10:54:58;;;;;;;4.22;3.50;;;;;;;;;;5011273;28;20186;-76
2023/09/28 10:58:04;;;;;;;4.78;3.65;;;;;;;;;;5011189;28;20210;-76
2023/09/28 11:01:10;;;;;;;4.22;3.58;;;;;;;;;;5011185;28;20178;-75
2023/09/28 11:04:15;;;;;;;6.65;3.70;;;;;;;;;;5011173;28;20178;-76
2023/09/28 11:07:21;;;;;;;3.47;3.08;;;;;;;;;;5011064;28;20182;-75
2023/09/28 11:10:25;;;;;;;7.70;4.10;;;;;;;;;;5011105;28;20178;-76
2023/09/28 11:13:29;;;;;;;6.25;3.10;;;;;;;;;;5010510;28;20178;-76
2023/09/28 11:16:34;;;;;;;4.80;3.30;;;;;;;;;;5057666;28;20205;-76
2023/09/28 11:19:39;;;;;;;5.65;3.33;;;;;;;;;;5010852;28;20224;-76
2023/09/28 11:22:43;;;;;;;5.70;3.25;;;;;;;;;;5010871;28;20193;-76
2023/09/28 11:25:47;;;;;;;3.78;2.92;;;;;;;;;;5057370;28;20667;-76
2023/09/28 11:28:54;;;;;;;5.28;3.40;;;;;;;;;;5010691;28;20214;-76
2023/09/28 11:31:58;;;;;;;6.72;3.40;;;;;;;;;;5057710;28;20176;-76
2023/09/28 11:35:04;;;;;;;10.05;3.97;;;;;;;;;;5009860;28;20181;-76
2023/09/28 11:38:12;;;;;;;4.20;3.10;;;;;;;;;;5010594;28;20559;-76
2023/09/28 11:41:16;;;;;;;4.30;2.75;;;;;;;;;;5010503;28;20185;-76
2023/09/28 11:44:20;;;;;;;9.95;4.25;;;;;;;;;;5057379;28;20175;-75
2023/09/28 11:47:26;;;;;;;3.92;3.28;;;;;;;;;;5009728;28;20182;-75
2023/09/28 11:50:32;;;;;;;5.43;3.33;;;;;;;;;;5010545;28;20178;-76
2023/09/28 11:53:43;;;;;;;8.02;3.28;;;;;;;;;;5010454;28;20186;-76
2023/09/28 11:56:48;;;;;;;4.75;3.03;;;;;;;;;;5010397;28;20214;-76
2023/09/28 11:59:52;;;;;;;4.15;3.13;;;;;;;;;;5010286;28;20206;-76
2023/09/28 12:02:56;;;;;;;6.25;2.78;;;;;;;;;;5010274;28;20178;-76
2023/09/28 12:06:00;;;;;;;4.70;3.10;;;;;;;;;;5057355;28;20171;-76
2023/09/28 12:09:06;;;;;;;4.63;3.20;;;;;;;;;;5010196;28;20217;-76
2023/09/28 12:12:10;;;;;;;9.73;4.35;;;;;;;;;;5010270;28;20178;-76
2023/09/28 12:15:14;;;;;;;9.63;3.40;;;;;;;;;;5010070;28;20552;-76
2023/09/28 12:18:18;;;;;;;5.72;3.03;;;;;;;;;;5010111;28;20220;-76
2023/09/28 12:21:23;;;;;;;4.00;2.85;;;;;;;;;;5056800;28;20180;-76
2023/09/28 12:24:27;;;;;;;3.38;2.47;;;;;;;;;;5010163;28;20196;-76
2023/09/28 12:27:32;;;;;;;3.20;2.67;;;;;;;;;;5102679;23;20592;-74
2023/09/28 12:30:36;;;;;;;2.47;2.10;;;;;;;;;;5026584;28;20175;-74
2023/09/28 12:33:40;;;;;;;3.50;2.08;;;;;;;;;;5041780;28;20187;-74
2023/09/28 12:36:45;;;;;;;3.13;2.28;;;;;;;;;;4995293;28;20676;-74
2023/09/28 12:39:53;;;;;;;33.92;3.10;;;;;;;;;;4995087;28;20703;-74
2023/09/28 12:42:57;;;;;;;5.47;2.30;;;;;;;;;;4994734;28;20543;-74
2023/09/28 12:46:04;;;;;;;9.35;2.50;;;;;;;;;;5041862;28;20183;-75
2023/09/28 12:49:08;;;;;;;14.10;2.88;;;;;;;;;;5040955;28;20217;-74
2023/09/28 12:52:12;;;;;;;7.68;2.10;;;;;;;;;;5041084;28;20179;-74
2023/09/28 12:55:16;;;;;;;2.55;1.90;;;;;;;;;;5029485;28;20183;-74
2023/09/28 12:58:20;;;;;;;14.90;2.83;;;;;;;;;;4994409;28;20568;-74
2023/09/28 13:01:24;;;;;;;2.67;2.30;;;;;;;;;;5041298;28;20179;-75
2023/09/28 13:04:28;;;;;;;3.15;2.10;;;;;;;;;;4994617;28;20515;-75
2023/09/28 13:07:33;;;;;;;3.00;2.20;;;;;;;;;;4994698;28;20183;-74
2023/09/28 13:10:38;;;;;;;5.47;2.40;;;;;;;;;;4994451;28;20183;-74
2023/09/28 13:13:42;;;;;;;4.10;2.22;;;;;;;;;;4994515;28;20182;-74
2023/09/28 13:16:46;;;;;;;5.20;2.60;;;;;;;;;;5018232;28;20214;-74
2023/09/28 13:19:51;;;;;;;5.55;2.35;;;;;;;;;;4994473;28;20226;-74
2023/09/28 13:22:57;;;;;;;4.10;2.40;;;;;;;;;;4994577;28;20183;-74
2023/09/28 13:26:01;;;;;;;3.00;2.50;;;;;;;;;;4993931;28;20175;-74
2023/09/28 13:29:05;;;;;;;3.72;2.28;;;;;;;;;;4993907;28;20214;-74
2023/09/28 13:32:13;;;;;;;2.58;2.25;;;;;;;;;;4994209;28;20170;-74
2023/09/28 13:35:19;;;;;;;3.80;2.20;;;;;;;;;;5041329;28;20179;-74
2023/09/28 13:38:23;;;;;;;2.92;2.08;;;;;;;;;;4993484;28;20214;-74
2023/09/28 13:41:28;;;;;;;3.58;2.13;;;;;;;;;;5041014;28;20179;-74
2023/09/28 13:44:33;;;;;;;2.20;2.00;;;;;;;;;;4994611;28;20187;-74
2023/09/28 13:47:37;;;;;;;3.95;2.10;;;;;;;;;;4994423;28;20516;-74
2023/09/28 13:50:44;;;;;;;6.45;2.05;;;;;;;;;;4994478;28;20523;-74
2023/09/28 13:53:48;;;;;;;4.07;2.20;;;;;;;;;;4994084;28;20179;-74
2023/09/28 13:56:58;;;;;;;5.72;2.38;;;;;;;;;;4993799;28;20550;-74
2023/09/28 14:00:06;;;;;;;3.70;2.40;;;;;;;;;;4993825;28;20735;-74
2023/09/28 14:03:16;;;;;;;8.77;2.50;;;;;;;;;;4993613;28;20174;-74
2023/09/28 14:06:20;;;;;;;4.80;2.05;;;;;;;;;;4993741;28;20182;-74
2023/09/28 14:09:27;;;;;;;3.28;2.08;;;;;;;;;;5040122;28;20214;-74
2023/09/28 14:12:31;;;;;;;4.97;2.95;;;;;;;;;;4993911;28;20179;-74
2023/09/28 14:15:36;;;;;;;2.80;2.05;;;;;;;;;;5039829;28;20175;-74
2023/09/28 14:18:40;;;;;;;2.55;2.00;;;;;;;;;;5040176;28;20703;-74
2023/09/28 14:21:44;;;;;;;4.35;2.03;;;;;;;;;;5039567;28;20182;-75
2023/09/28 14:24:48;;;;;;;3.00;2.13;;;;;;;;;;4993256;28;20182;-74
2023/09/28 14:27:52;;;;;;;3.17;1.58;;;;;;;;;;5028057;28;20194;-73
2023/09/28 14:30:56;;;;;;;3.88;1.85;;;;;;;;;;4993175;28;20179;-74
2023/09/28 14:34:02;;;;;;;2.67;1.80;;;;;;;;;;4992880;28;20182;-74
2023/09/28 14:37:07;;;;;;;5.75;1.67;;;;;;;;;;4992655;28;20211;-74
2023/09/28 14:40:14;;;;;;;3.40;1.92;;;;;;;;;;5039318;28;20181;-75
2023/09/28 14:43:18;;;;;;;4.60;2.10;;;;;;;;;;5039533;28;20186;-74
2023/09/28 14:46:22;;;;;;;1.63;1.50;;;;;;;;;;4992809;28;20186;-74
2023/09/28 14:49:26;;;;;;;3.70;1.80;;;;;;;;;;4991668;28;20220;-74
2023/09/28 14:52:30;;;;;;;3.50;2.15;;;;;;;;;;5039268;28;20644;-74
2023/09/28 14:55:37;;;;;;;4.53;2.15;;;;;;;;;;4992939;28;20185;-74
2023/09/28 14:58:42;;;;;;;4.47;2.13;;;;;;;;;;4992820;28;20217;-74
2023/09/28 15:01:46;;;;;;;4.22;2.13;;;;;;;;;;4992884;28;20183;-75
2023/09/28 15:04:50;;;;;;;4.00;2.38;;;;;;;;;;4992838;28;20183;-74
2023/09/28 15:07:55;;;;;;;4.28;2.28;;;;;;;;;;4992866;28;20219;-74
2023/09/28 15:10:59;;;;;;;2.97;1.90;;;;;;;;;;4992904;28;20568;-74
2023/09/28 15:14:03;;;;;;;2.53;1.92;;;;;;;;;;5027886;28;20193;-74
2023/09/28 15:17:07;;;;;;;5.45;2.25;;;;;;;;;;5038845;28;20211;-74
2023/09/28 15:20:11;;;;;;;5.68;2.60;;;;;;;;;;5039147;28;20174;-74
2023/09/28 15:23:16;;;;;;;3.45;2.05;;;;;;;;;;4992479;28;20174;-74
2023/09/28 15:26:20;;;;;;;2.78;1.70;;;;;;;;;;4992398;28;20213;-75
2023/09/28 15:29:24;;;;;;;8.05;2.15;;;;;;;;;;4992544;28;20695;-74
2023/09/28 15:32:28;;;;;;;2.92;2.00;;;;;;;;;;5039125;28;20178;-74
2023/09/28 15:35:32;;;;;;;2.75;1.73;;;;;;;;;;4992871;28;20180;-74
2023/09/28 15:38:36;;;;;;;4.95;2.05;;;;;;;;;;4993091;28;20212;-75
2023/09/28 15:41:41;;;;;;;6.60;3.80;;;;;;;;;;4992710;28;20179;-75
2023/09/28 15:44:45;;;;;;;3.47;2.90;;;;;;;;;;4992386;28;20184;-74
2023/09/28 15:47:50;;;;;;;7.60;4.63;;;;;;;;;;4992480;28;20174;-74
2023/09/28 15:50:54;;;;;;;3.83;2.72;;;;;;;;;;5038885;28;20182;-74
2023/09/28 15:53:58;;;;;;;7.00;2.50;;;;;;;;;;5038618;28;20183;-74
2023/09/28 15:57:02;;;;;;;7.32;2.45;;;;;;;;;;5039208;28;20207;-74
2023/09/28 16:00:07;;;;;;;3.67;2.50;;;;;;;;;;4991995;28;20185;-74
2023/09/28 16:03:11;;;;;;;4.10;2.55;;;;;;;;;;5038993;28;20181;-74
2023/09/28 16:06:15;;;;;;;6.77;2.67;;;;;;;;;;4992006;28;20182;-74
2023/09/28 16:09:19;;;;;;;3.27;2.27;;;;;;;;;;4991578;28;20213;-74
2023/09/28 16:12:24;;;;;;;4.47;2.43;;;;;;;;;;5038281;28;20658;-74
2023/09/28 16:15:28;;;;;;;4.40;2.87;;;;;;;;;;4991940;28;20190;-74
2023/09/28 16:18:32;;;;;;;3.30;2.70;;;;;;;;;;5038391;28;20222;-74
2023/09/28 16:21:37;;;;;;;8.30;3.00;;;;;;;;;;4991652;28;20189;-74
2023/09/28 16:24:41;;;;;;;4.07;3.00;;;;;;;;;;4991652;28;20182;-74
2023/09/28 16:27:45;;;;;;;8.63;3.10;;;;;;;;;;5026582;28;20205;-74
2023/09/28 16:30:50;;;;;;;9.33;2.90;;;;;;;;;;5026531;28;20177;-74
2023/09/28 16:33:54;;;;;;;4.00;2.80;;;;;;;;;;5038141;28;20188;-74
2023/09/28 16:36:59;;;;;;;5.37;2.43;;;;;;;;;;5037678;28;20211;-74
2023/09/28 16:40:04;;;;;;;5.00;3.00;;;;;;;;;;4991099;28;20227;-74
2023/09/28 16:43:08;;;;;;;6.20;2.63;;;;;;;;;;5037749;28;20175;-75
2023/09/28 16:46:12;;;;;;;9.63;2.90;;;;;;;;;;5037946;28;20180;-74
2023/09/28 16:49:17;;;;;;;7.60;3.37;;;;;;;;;;4991271;28;20210;-74
2023/09/28 16:52:21;;;;;;;9.03;2.80;;;;;;;;;;4991099;28;20178;-74
2023/09/28 16:55:26;;;;;;;8.00;3.37;;;;;;;;;;4991092;28;20183;-74
2023/09/28 16:58:30;;;;;;;13.13;2.93;;;;;;;;;;5037537;28;20226;-74
2023/09/28 17:01:34;;;;;;;9.73;3.20;;;;;;;;;;5037278;28;20530;-74
2023/09/28 17:04:38;;;;;;;5.17;2.90;;;;;;;;;;4991241;28;20182;-74
2023/09/28 17:07:42;;;;;;;5.13;2.90;;;;;;;;;;4990756;28;20204;-74
2023/09/28 17:10:47;;;;;;;6.80;2.90;;;;;;;;;;4990975;28;20182;-74
2023/09/28 17:13:51;;;;;;;5.23;3.00;;;;;;;;;;4993928;28;20645;-74
2023/09/28 17:16:55;;;;;;;5.77;3.30;;;;;;;;;;5040718;28;20174;-74
2023/09/28 17:19:59;;;;;;;4.50;3.40;;;;;;;;;;5029384;28;20226;-74
2023/09/28 17:23:03;;;;;;;9.90;3.57;;;;;;;;;;5041270;28;20182;-74
2023/09/28 17:26:07;;;;;;;9.37;3.90;;;;;;;;;;4994127;28;20174;-75
2023/09/28 17:29:12;;;;;;;9.67;3.90;;;;;;;;;;4994245;28;20218;-74
2023/09/28 17:32:16;;;;;;;7.80;3.07;;;;;;;;;;5040440;28;20638;-74
2023/09/28 17:35:20;;;;;;;8.60;3.60;;;;;;;;;;4994173;28;20186;-74
2023/09/28 17:38:24;;;;;;;7.03;4.00;;;;;;;;;;5040968;28;20233;-74
2023/09/28 17:41:29;;;;;;;4.77;3.20;;;;;;;;;;4994423;28;20183;-74
2023/09/28 17:44:33;;;;;;;5.10;3.57;;;;;;;;;;4994050;28;20182;-74
2023/09/28 17:47:37;;;;;;;6.03;2.90;;;;;;;;;;4994386;28;20182;-74
2023/09/28 17:50:41;;;;;;;6.13;3.23;;;;;;;;;;5017982;28;20174;-73
2023/09/28 17:53:45;;;;;;;6.00;3.30;;;;;;;;;;4994089;28;20178;-74
2023/09/28 17:56:49;;;;;;;4.97;2.73;;;;;;;;;;5040548;28;20183;-74
2023/09/28 17:59:54;;;;;;;5.40;3.20;;;;;;;;;;4993597;28;20210;-74
2023/09/28 18:03:03;;;;;;;5.27;3.20;;;;;;;;;;5029290;28;20190;-74
2023/09/28 18:06:08;;;;;;;4.07;2.97;;;;;;;;;;4993562;28;20182;-74
2023/09/28 18:09:12;;;;;;;5.57;3.20;;;;;;;;;;4993503;28;20210;-74
2023/09/28 18:12:16;;;;;;;6.83;3.23;;;;;;;;;;4992883;28;20186;-74
2023/09/28 18:15:20;;;;;;;9.57;3.07;;;;;;;;;;4993441;28;20182;-74